Terminal Aerodrome Forecast
Issued by NWS

Home | Current Version | Previous Version | Text Only | Print | Product List | Glossary On
Versions: 1 2 3 4 5 6 7 8 9 10 11 12 13
690
FTUS42 KMLB 161138
TAFSUA
TAF
KSUA 161138Z 1612/1712 20004KT P6SM FEW030 FEW250
     FM161400 25005KT P6SM SCT025
     FM161730 09010KT P6SM VCTS SCT040CB
     FM170000 13008KT P6SM SCT025=

USA.gov is the U.S. government's official web portal to all federal, state and local government web resources and services.